createdAt,value
2018-12-09T00:00:04.373Z,9.656064
2018-12-09T00:00:16.910Z,9.656064
2018-12-09T00:00:29.283Z,9.656064
2018-12-09T00:00:41.696Z,9.656064
2018-12-09T00:00:54.056Z,9.656064
2018-12-09T00:01:06.391Z,16.09344
2018-12-09T00:01:18.727Z,17.702784
2018-12-09T00:01:31.057Z,17.702784
2018-12-09T00:01:43.422Z,17.702784
2018-12-09T00:01:55.776Z,17.702784
2018-12-09T00:02:08.673Z,9.656064
2018-12-09T00:02:21.009Z,9.656064
2018-12-09T00:02:33.349Z,9.656064
2018-12-09T00:02:45.696Z,12.874752
2018-12-09T00:02:59.822Z,12.874752
2018-12-09T00:03:12.190Z,14.484096
2018-12-09T00:03:24.538Z,14.484096
2018-12-09T00:03:36.901Z,14.484096
2018-12-09T00:03:49.236Z,14.484096
2018-12-09T00:04:01.572Z,19.312128
2018-12-09T00:04:13.924Z,14.484096
2018-12-09T00:04:26.260Z,14.484096
2018-12-09T00:04:38.601Z,14.484096
2018-12-09T00:04:51.097Z,14.484096
2018-12-09T00:05:03.477Z,14.484096
2018-12-09T00:05:15.813Z,14.484096
2018-12-09T00:05:28.150Z,14.484096
2018-12-09T00:05:40.489Z,14.484096
2018-12-09T00:05:52.917Z,14.484096
2018-12-09T00:06:05.249Z,14.484096
2018-12-09T00:06:17.697Z,16.09344
2018-12-09T00:06:30.040Z,16.09344
2018-12-09T00:06:42.373Z,16.09344
2018-12-09T00:06:54.715Z,19.312128
2018-12-09T00:07:07.062Z,17.702784
2018-12-09T00:07:19.395Z,20.921472
2018-12-09T00:07:31.777Z,20.921472
2018-12-09T00:07:44.117Z,20.921472
2018-12-09T00:07:56.525Z,20.921472
2018-12-09T00:08:08.868Z,14.484096
2018-12-09T00:08:21.236Z,14.484096
2018-12-09T00:08:33.704Z,14.484096
2018-12-09T00:08:46.059Z,17.702784
2018-12-09T00:08:58.387Z,17.702784
2018-12-09T00:09:10.933Z,8.04672
2018-12-09T00:09:23.376Z,8.04672
2018-12-09T00:09:35.730Z,9.656064
2018-12-09T00:09:48.107Z,9.656064
2018-12-09T00:10:00.445Z,9.656064
2018-12-09T00:10:12.785Z,8.04672
2018-12-09T00:10:25.144Z,9.656064
2018-12-09T00:10:37.488Z,11.265408
2018-12-09T00:10:49.822Z,12.874752
2018-12-09T00:11:02.156Z,16.09344
2018-12-09T00:11:14.507Z,17.702784
2018-12-09T00:11:26.871Z,17.702784
2018-12-09T00:11:39.233Z,17.702784
2018-12-09T00:11:51.791Z,17.702784
2018-12-09T00:12:04.139Z,17.702784
2018-12-09T00:12:16.485Z,12.874752
2018-12-09T00:12:28.836Z,12.874752
2018-12-09T00:12:41.185Z,14.484096
2018-12-09T00:12:53.531Z,14.484096
2018-12-09T00:13:05.871Z,11.265408
2018-12-09T00:13:18.286Z,11.265408
2018-12-09T00:13:30.658Z,11.265408
2018-12-09T00:13:43.017Z,12.874752
2018-12-09T00:13:55.366Z,12.874752
2018-12-09T00:14:07.718Z,9.656064
2018-12-09T00:14:20.052Z,17.702784
2018-12-09T00:14:32.399Z,17.702784
2018-12-09T00:14:44.737Z,17.702784
2018-12-09T00:14:57.252Z,17.702784
2018-12-09T00:15:09.614Z,9.656064
2018-12-09T00:15:21.980Z,9.656064
2018-12-09T00:15:34.320Z,9.656064
2018-12-09T00:15:46.712Z,9.656064
2018-12-09T00:15:59.051Z,9.656064
2018-12-09T00:16:11.405Z,4.828032
2018-12-09T00:16:23.764Z,11.265408
2018-12-09T00:16:36.212Z,11.265408
2018-12-09T00:16:48.555Z,11.265408
2018-12-09T00:17:00.891Z,11.265408
2018-12-09T00:17:13.259Z,12.874752
2018-12-09T00:17:25.591Z,12.874752
2018-12-09T00:17:37.939Z,12.874752
2018-12-09T00:17:50.279Z,12.874752
2018-12-09T00:18:02.713Z,12.874752
2018-12-09T00:18:15.046Z,12.874752
2018-12-09T00:18:27.405Z,12.874752
2018-12-09T00:18:39.737Z,12.874752
2018-12-09T00:18:52.192Z,12.874752
2018-12-09T00:19:04.745Z,11.265408
2018-12-09T00:19:17.095Z,14.484096
2018-12-09T00:19:29.476Z,16.09344
2018-12-09T00:19:41.812Z,16.09344
2018-12-09T00:19:54.295Z,16.09344
2018-12-09T00:20:06.627Z,9.656064
2018-12-09T00:20:18.961Z,12.874752
2018-12-09T00:20:31.301Z,12.874752
2018-12-09T00:20:43.648Z,12.874752
2018-12-09T00:20:55.996Z,12.874752
2018-12-09T00:21:08.351Z,11.265408
2018-12-09T00:21:20.699Z,25.749504
2018-12-09T00:21:33.029Z,25.749504
2018-12-09T00:21:45.351Z,25.749504
2018-12-09T00:21:57.669Z,25.749504
2018-12-09T00:22:10.006Z,16.09344
2018-12-09T00:22:22.433Z,17.702784
2018-12-09T00:22:34.781Z,17.702784
2018-12-09T00:22:47.231Z,17.702784
2018-12-09T00:22:59.599Z,17.702784
2018-12-09T00:23:11.934Z,11.265408
2018-12-09T00:23:24.283Z,11.265408
2018-12-09T00:23:36.731Z,11.265408
2018-12-09T00:23:49.077Z,12.874752
2018-12-09T00:24:01.414Z,16.09344
2018-12-09T00:24:13.764Z,16.09344
2018-12-09T00:24:26.194Z,17.702784
2018-12-09T00:24:38.545Z,17.702784
2018-12-09T00:24:50.959Z,17.702784
2018-12-09T00:25:03.634Z,17.702784
2018-12-09T00:25:15.988Z,12.874752
2018-12-09T00:25:28.385Z,14.484096
2018-12-09T00:25:40.726Z,14.484096
2018-12-09T00:25:53.062Z,14.484096
2018-12-09T00:26:05.390Z,9.656064
2018-12-09T00:26:17.902Z,9.656064
2018-12-09T00:26:30.235Z,9.656064
2018-12-09T00:26:42.568Z,9.656064
2018-12-09T00:26:55.028Z,9.656064
2018-12-09T00:27:07.359Z,8.04672
2018-12-09T00:27:19.701Z,12.874752
2018-12-09T00:27:32.029Z,19.312128
2018-12-09T00:27:44.353Z,19.312128
2018-12-09T00:27:56.872Z,19.312128
2018-12-09T00:28:09.217Z,8.04672
2018-12-09T00:28:21.550Z,8.04672
2018-12-09T00:28:33.929Z,8.04672
2018-12-09T00:28:46.544Z,9.656064
2018-12-09T00:28:58.977Z,11.265408
2018-12-09T00:29:11.314Z,8.04672
2018-12-09T00:29:23.656Z,9.656064
2018-12-09T00:29:36.012Z,14.484096
2018-12-09T00:29:48.352Z,14.484096
2018-12-09T00:30:00.692Z,14.484096
2018-12-09T00:30:13.189Z,17.702784
2018-12-09T00:30:25.566Z,17.702784
2018-12-09T00:30:37.953Z,17.702784
2018-12-09T00:30:50.302Z,17.702784
2018-12-09T00:31:02.648Z,17.702784
2018-12-09T00:31:14.992Z,9.656064
2018-12-09T00:31:27.342Z,12.874752
2018-12-09T00:31:39.688Z,12.874752
2018-12-09T00:31:52.047Z,12.874752
2018-12-09T00:32:04.494Z,14.484096
2018-12-09T00:32:16.825Z,12.874752
2018-12-09T00:32:29.176Z,12.874752
2018-12-09T00:32:41.585Z,12.874752
2018-12-09T00:32:53.958Z,12.874752
2018-12-09T00:33:06.321Z,14.484096
2018-12-09T00:33:18.656Z,16.09344
2018-12-09T00:33:31.031Z,16.09344
2018-12-09T00:33:43.373Z,16.09344
2018-12-09T00:33:55.748Z,16.09344
2018-12-09T00:34:08.137Z,9.656064
2018-12-09T00:34:20.496Z,11.265408
2018-12-09T00:34:32.859Z,12.874752
2018-12-09T00:34:45.291Z,14.484096
2018-12-09T00:34:57.705Z,14.484096
2018-12-09T00:35:10.064Z,8.04672
2018-12-09T00:35:22.411Z,12.874752
2018-12-09T00:35:34.736Z,12.874752
2018-12-09T00:35:47.061Z,12.874752
2018-12-09T00:35:59.523Z,12.874752
2018-12-09T00:36:11.868Z,12.874752
2018-12-09T00:36:24.196Z,12.874752
2018-12-09T00:36:36.542Z,12.874752
2018-12-09T00:36:48.887Z,12.874752
2018-12-09T00:37:01.243Z,12.874752
2018-12-09T00:37:13.682Z,9.656064
2018-12-09T00:37:26.026Z,12.874752
2018-12-09T00:37:38.376Z,16.09344
2018-12-09T00:37:50.715Z,16.09344
2018-12-09T00:38:03.159Z,17.702784
2018-12-09T00:38:15.510Z,22.530816
2018-12-09T00:38:27.860Z,22.530816
2018-12-09T00:38:40.192Z,22.530816
2018-12-09T00:38:52.535Z,22.530816
2018-12-09T00:39:04.887Z,17.702784
2018-12-09T00:39:17.247Z,22.530816
2018-12-09T00:39:29.576Z,22.530816
2018-12-09T00:39:41.900Z,22.530816
2018-12-09T00:39:54.295Z,22.530816
2018-12-09T00:40:06.630Z,20.921472
2018-12-09T00:40:18.979Z,20.921472
2018-12-09T00:40:31.326Z,20.921472
2018-12-09T00:40:43.655Z,20.921472
2018-12-09T00:40:56.365Z,20.921472
2018-12-09T00:41:08.854Z,17.702784
2018-12-09T00:41:21.192Z,28.968192
2018-12-09T00:41:33.629Z,28.968192
2018-12-09T00:41:45.961Z,28.968192
2018-12-09T00:41:58.300Z,28.968192
2018-12-09T00:42:10.645Z,11.265408
2018-12-09T00:42:22.982Z,24.14016
2018-12-09T00:42:43.147Z,25.749504
2018-12-09T00:42:55.936Z,25.749504
2018-12-09T00:43:08.275Z,12.874752
2018-12-09T00:43:20.696Z,14.484096
2018-12-09T00:43:33.049Z,14.484096
2018-12-09T00:43:45.387Z,22.530816
2018-12-09T00:43:57.990Z,22.530816
2018-12-09T00:44:10.338Z,9.656064
2018-12-09T00:44:22.709Z,19.312128
2018-12-09T00:44:35.050Z,19.312128
2018-12-09T00:44:49.490Z,19.312128
2018-12-09T00:45:01.842Z,19.312128
2018-12-09T00:45:14.195Z,11.265408
2018-12-09T00:45:26.537Z,14.484096
2018-12-09T00:45:38.890Z,17.702784
2018-12-09T00:45:51.232Z,17.702784
2018-12-09T00:46:03.581Z,17.702784
2018-12-09T00:46:15.915Z,17.702784
2018-12-09T00:46:28.279Z,17.702784
2018-12-09T00:46:40.610Z,17.702784
2018-12-09T00:46:52.971Z,17.702784
2018-12-09T00:47:05.319Z,6.437376
2018-12-09T00:47:17.693Z,16.09344
2018-12-09T00:47:30.037Z,16.09344
2018-12-09T00:47:42.486Z,16.09344
2018-12-09T00:47:54.851Z,16.09344
2018-12-09T00:48:07.197Z,8.04672
2018-12-09T00:48:19.663Z,11.265408
2018-12-09T00:48:32.002Z,11.265408
2018-12-09T00:48:44.353Z,16.09344
2018-12-09T00:48:56.728Z,17.702784
2018-12-09T00:49:09.071Z,9.656064
2018-12-09T00:49:21.410Z,12.874752
2018-12-09T00:49:33.744Z,12.874752
2018-12-09T00:49:46.077Z,12.874752
2018-12-09T00:49:58.623Z,12.874752
2018-12-09T00:50:10.993Z,8.04672
2018-12-09T00:50:23.333Z,8.04672
2018-12-09T00:50:35.677Z,8.04672
2018-12-09T00:50:48.004Z,8.04672
2018-12-09T00:51:00.336Z,8.04672
2018-12-09T00:51:12.677Z,9.656064
2018-12-09T00:51:25.022Z,14.484096
2018-12-09T00:51:37.372Z,16.09344
2018-12-09T00:51:49.874Z,20.921472
2018-12-09T00:52:02.204Z,20.921472
2018-12-09T00:52:14.537Z,12.874752
2018-12-09T00:52:26.921Z,12.874752
2018-12-09T00:52:39.264Z,12.874752
2018-12-09T00:52:52.031Z,12.874752
2018-12-09T00:53:04.384Z,14.484096
2018-12-09T00:53:16.724Z,11.265408
2018-12-09T00:53:29.197Z,11.265408
2018-12-09T00:53:41.522Z,11.265408
2018-12-09T00:53:53.864Z,17.702784
2018-12-09T00:54:06.321Z,12.874752
2018-12-09T00:54:18.676Z,17.702784
2018-12-09T00:54:31.009Z,17.702784
2018-12-09T00:54:43.444Z,17.702784
2018-12-09T00:54:55.800Z,17.702784
2018-12-09T00:55:08.327Z,6.437376
2018-12-09T00:55:20.676Z,16.09344
2018-12-09T00:55:33.005Z,17.702784
2018-12-09T00:55:45.340Z,17.702784
2018-12-09T00:55:57.676Z,17.702784
2018-12-09T00:56:10.024Z,17.702784
2018-12-09T00:56:22.354Z,17.702784
2018-12-09T00:56:35.000Z,17.702784
2018-12-09T00:56:47.338Z,20.921472
2018-12-09T00:56:59.692Z,20.921472
2018-12-09T00:57:12.129Z,12.874752
2018-12-09T00:57:24.478Z,12.874752
2018-12-09T00:57:36.816Z,14.484096
2018-12-09T00:57:49.251Z,14.484096
2018-12-09T00:58:01.593Z,14.484096
2018-12-09T00:58:13.938Z,12.874752
2018-12-09T00:58:26.436Z,17.702784
2018-12-09T00:58:38.785Z,17.702784
2018-12-09T00:58:51.125Z,17.702784
2018-12-09T00:59:03.450Z,17.702784
2018-12-09T00:59:15.921Z,14.484096
2018-12-09T00:59:28.440Z,14.484096
2018-12-09T00:59:40.784Z,14.484096
2018-12-09T00:59:53.109Z,14.484096
2018-12-09T01:00:05.443Z,11.265408
2018-12-09T01:00:17.968Z,14.484096
2018-12-09T01:00:30.301Z,16.09344
2018-12-09T01:00:42.645Z,16.09344
2018-12-09T01:00:55.033Z,16.09344
2018-12-09T01:01:07.377Z,9.656064
2018-12-09T01:01:19.712Z,11.265408
2018-12-09T01:01:32.061Z,12.874752
2018-12-09T01:01:44.523Z,12.874752
2018-12-09T01:01:56.869Z,14.484096
2018-12-09T01:02:09.406Z,12.874752
2018-12-09T01:02:21.846Z,12.874752
2018-12-09T01:02:34.180Z,12.874752
2018-12-09T01:02:48.584Z,12.874752
2018-12-09T01:03:00.944Z,12.874752
2018-12-09T01:03:13.299Z,8.04672
2018-12-09T01:03:25.676Z,8.04672
2018-12-09T01:03:38.012Z,17.702784
2018-12-09T01:03:50.353Z,17.702784
2018-12-09T01:04:02.706Z,17.702784
2018-12-09T01:04:15.191Z,12.874752
2018-12-09T01:04:27.527Z,12.874752
2018-12-09T01:04:39.866Z,22.530816
2018-12-09T01:04:52.463Z,25.749504
2018-12-09T01:05:04.820Z,16.09344
2018-12-09T01:05:17.167Z,16.09344
2018-12-09T01:05:29.507Z,16.09344
2018-12-09T01:05:41.857Z,17.702784
2018-12-09T01:05:54.215Z,20.921472
2018-12-09T01:06:06.570Z,11.265408
2018-12-09T01:06:19.016Z,11.265408
2018-12-09T01:06:31.356Z,14.484096
2018-12-09T01:06:43.703Z,16.09344
2018-12-09T01:06:56.058Z,16.09344
2018-12-09T01:07:08.407Z,12.874752
2018-12-09T01:07:20.735Z,12.874752
2018-12-09T01:07:33.070Z,12.874752
2018-12-09T01:07:45.421Z,12.874752
2018-12-09T01:07:57.787Z,12.874752
2018-12-09T01:08:10.117Z,11.265408
2018-12-09T01:08:22.490Z,11.265408
2018-12-09T01:08:34.827Z,11.265408
2018-12-09T01:08:47.157Z,19.312128
2018-12-09T01:08:59.494Z,19.312128
2018-12-09T01:09:11.945Z,11.265408
2018-12-09T01:09:24.279Z,11.265408
2018-12-09T01:09:36.699Z,11.265408
2018-12-09T01:09:49.059Z,11.265408
2018-12-09T01:10:01.410Z,11.265408
2018-12-09T01:10:13.765Z,6.437376
2018-12-09T01:10:26.154Z,17.702784
2018-12-09T01:10:38.505Z,17.702784
2018-12-09T01:10:50.831Z,17.702784
2018-12-09T01:11:03.274Z,17.702784
2018-12-09T01:11:15.606Z,11.265408
2018-12-09T01:11:27.940Z,12.874752
2018-12-09T01:11:40.362Z,14.484096
2018-12-09T01:11:52.814Z,14.484096
2018-12-09T01:12:05.164Z,14.484096
2018-12-09T01:12:17.498Z,19.312128
2018-12-09T01:12:29.846Z,19.312128
2018-12-09T01:12:42.178Z,19.312128
2018-12-09T01:12:54.674Z,19.312128
2018-12-09T01:13:07.047Z,16.09344
2018-12-09T01:13:19.579Z,20.921472
2018-12-09T01:13:31.973Z,20.921472
2018-12-09T01:13:44.309Z,20.921472
2018-12-09T01:13:56.700Z,30.577536
2018-12-09T01:14:09.050Z,14.484096
2018-12-09T01:14:21.382Z,19.312128
2018-12-09T01:14:33.716Z,19.312128
2018-12-09T01:14:46.056Z,19.312128
2018-12-09T01:14:58.782Z,19.312128
2018-12-09T01:15:11.119Z,17.702784
2018-12-09T01:15:23.445Z,19.312128
2018-12-09T01:15:35.795Z,22.530816
2018-12-09T01:15:48.129Z,22.530816
2018-12-09T01:16:00.454Z,22.530816
2018-12-09T01:16:12.857Z,16.09344
2018-12-09T01:16:25.213Z,17.702784
2018-12-09T01:16:37.667Z,17.702784
2018-12-09T01:16:50.124Z,22.530816
2018-12-09T01:17:02.493Z,25.749504
2018-12-09T01:17:14.837Z,22.530816
2018-12-09T01:17:27.170Z,22.530816
2018-12-09T01:17:39.515Z,22.530816
2018-12-09T01:17:51.850Z,22.530816
2018-12-09T01:18:04.179Z,22.530816
2018-12-09T01:18:16.523Z,19.312128
2018-12-09T01:18:28.871Z,19.312128
2018-12-09T01:18:41.304Z,19.312128
2018-12-09T01:18:53.770Z,19.312128
2018-12-09T01:19:06.127Z,16.09344
2018-12-09T01:19:18.572Z,16.09344
2018-12-09T01:19:30.917Z,16.09344
2018-12-09T01:19:43.384Z,16.09344
2018-12-09T01:19:55.740Z,16.09344
2018-12-09T01:20:08.089Z,14.484096
2018-12-09T01:20:20.451Z,14.484096
2018-12-09T01:20:32.884Z,14.484096
2018-12-09T01:20:45.228Z,14.484096
2018-12-09T01:20:57.570Z,14.484096
2018-12-09T01:21:09.902Z,17.702784
2018-12-09T01:21:22.242Z,17.702784
2018-12-09T01:21:34.565Z,17.702784
2018-12-09T01:21:46.909Z,20.921472
2018-12-09T01:21:59.243Z,20.921472
2018-12-09T01:22:11.565Z,25.749504
2018-12-09T01:22:23.917Z,25.749504
2018-12-09T01:22:36.258Z,25.749504
2018-12-09T01:22:48.592Z,25.749504
2018-12-09T01:23:00.926Z,25.749504
2018-12-09T01:23:13.268Z,9.656064
2018-12-09T01:23:25.624Z,11.265408
2018-12-09T01:23:37.958Z,19.312128
2018-12-09T01:23:50.289Z,22.530816
2018-12-09T01:24:03.811Z,22.530816
2018-12-09T01:24:16.254Z,19.312128
2018-12-09T01:24:28.664Z,19.312128
2018-12-09T01:24:41.078Z,19.312128
2018-12-09T01:24:53.503Z,19.312128
2018-12-09T01:25:06.290Z,14.484096
2018-12-09T01:25:19.498Z,19.312128
2018-12-09T01:25:31.941Z,19.312128
2018-12-09T01:25:44.317Z,19.312128
2018-12-09T01:25:56.788Z,19.312128
2018-12-09T01:26:09.215Z,8.04672
2018-12-09T01:26:22.818Z,8.04672
2018-12-09T01:26:35.198Z,16.09344
2018-12-09T01:26:47.586Z,19.312128
2018-12-09T01:27:00.072Z,22.530816
2018-12-09T01:27:12.465Z,20.921472
2018-12-09T01:27:25.926Z,22.530816
2018-12-09T01:27:38.321Z,22.530816
2018-12-09T01:27:50.745Z,22.530816
2018-12-09T01:28:03.248Z,22.530816
2018-12-09T01:28:15.660Z,14.484096
2018-12-09T01:28:28.976Z,16.09344
2018-12-09T01:28:41.697Z,16.09344
2018-12-09T01:28:54.237Z,16.09344
2018-12-09T01:29:06.649Z,9.656064
2018-12-09T01:29:19.058Z,12.874752
2018-12-09T01:29:31.447Z,12.874752
2018-12-09T01:29:44.973Z,14.484096
2018-12-09T01:29:57.408Z,14.484096
2018-12-09T01:30:10.072Z,14.484096
2018-12-09T01:30:22.460Z,19.312128
2018-12-09T01:30:35.220Z,20.921472
2018-12-09T01:30:48.647Z,20.921472
2018-12-09T01:31:01.040Z,20.921472
2018-12-09T01:31:13.430Z,14.484096
2018-12-09T01:31:25.830Z,22.530816
2018-12-09T01:31:38.224Z,22.530816
2018-12-09T01:31:51.669Z,22.530816
2018-12-09T01:32:04.076Z,22.530816
2018-12-09T01:32:16.491Z,16.09344
2018-12-09T01:32:29.083Z,17.702784
2018-12-09T01:32:41.493Z,19.312128
2018-12-09T01:32:54.479Z,19.312128
2018-12-09T01:33:07.407Z,16.09344
2018-12-09T01:33:19.801Z,16.09344
2018-12-09T01:33:32.197Z,22.530816
2018-12-09T01:33:44.568Z,22.530816
2018-12-09T01:33:56.946Z,22.530816
2018-12-09T01:34:10.398Z,20.921472
2018-12-09T01:34:22.808Z,20.921472
2018-12-09T01:34:35.201Z,20.921472
2018-12-09T01:34:47.610Z,20.921472
2018-12-09T01:35:00.150Z,20.921472
2018-12-09T01:35:13.711Z,9.656064
2018-12-09T01:35:26.093Z,11.265408
2018-12-09T01:35:38.487Z,17.702784
2018-12-09T01:35:50.866Z,22.530816
2018-12-09T01:36:03.259Z,22.530816
2018-12-09T01:36:16.456Z,12.874752
2018-12-09T01:36:29.075Z,14.484096
2018-12-09T01:36:41.461Z,16.09344
2018-12-09T01:36:53.843Z,19.312128
2018-12-09T01:37:06.260Z,14.484096
2018-12-09T01:37:18.745Z,16.09344
2018-12-09T01:37:32.185Z,19.312128
2018-12-09T01:37:44.589Z,19.312128
2018-12-09T01:37:56.983Z,19.312128
2018-12-09T01:38:09.371Z,17.702784
2018-12-09T01:38:21.844Z,17.702784
2018-12-09T01:38:35.227Z,17.702784
2018-12-09T01:38:47.629Z,17.702784
2018-12-09T01:39:00.029Z,17.702784
2018-12-09T01:39:12.422Z,6.437376
2018-12-09T01:39:24.837Z,8.04672
2018-12-09T01:39:38.412Z,9.656064
2018-12-09T01:39:50.823Z,9.656064
2018-12-09T01:40:03.347Z,14.484096
2018-12-09T01:40:15.734Z,14.484096
2018-12-09T01:40:28.144Z,14.484096
2018-12-09T01:40:40.887Z,14.484096
2018-12-09T01:40:54.071Z,14.484096
2018-12-09T01:41:06.726Z,9.656064
2018-12-09T01:41:19.158Z,16.09344
2018-12-09T01:41:31.598Z,30.577536
2018-12-09T01:41:43.998Z,30.577536
2018-12-09T01:41:57.362Z,30.577536
2018-12-09T01:42:09.779Z,16.09344
2018-12-09T01:42:22.177Z,19.312128
2018-12-09T01:42:34.546Z,19.312128
2018-12-09T01:42:46.954Z,19.312128
2018-12-09T01:43:00.345Z,19.312128
2018-12-09T01:43:12.737Z,16.09344
2018-12-09T01:43:25.156Z,16.09344
2018-12-09T01:43:37.523Z,16.09344
2018-12-09T01:43:49.902Z,16.09344
2018-12-09T01:44:02.849Z,14.484096
2018-12-09T01:44:15.755Z,19.312128
2018-12-09T01:44:28.156Z,19.312128
2018-12-09T01:44:40.655Z,19.312128
2018-12-09T01:44:55.147Z,19.312128
2018-12-09T01:45:07.568Z,17.702784
2018-12-09T01:45:20.958Z,17.702784
2018-12-09T01:45:33.363Z,17.702784
2018-12-09T01:45:45.761Z,17.702784
2018-12-09T01:45:58.160Z,17.702784
2018-12-09T01:46:10.596Z,19.312128
2018-12-09T01:46:23.897Z,19.312128
2018-12-09T01:46:36.313Z,19.312128
2018-12-09T01:46:48.709Z,19.312128
2018-12-09T01:47:01.203Z,19.312128
2018-12-09T01:47:13.594Z,6.437376
2018-12-09T01:47:27.016Z,16.09344
2018-12-09T01:47:39.430Z,17.702784
2018-12-09T01:47:51.918Z,20.921472
2018-12-09T01:48:04.409Z,14.484096
2018-12-09T01:48:16.818Z,24.14016
2018-12-09T01:48:29.835Z,24.14016
2018-12-09T01:48:42.677Z,24.14016
2018-12-09T01:48:55.073Z,24.14016
2018-12-09T01:49:07.467Z,11.265408
2018-12-09T01:49:19.871Z,16.09344
2018-12-09T01:49:32.257Z,17.702784
2018-12-09T01:49:45.590Z,17.702784
2018-12-09T01:49:58.158Z,19.312128
2018-12-09T01:50:10.578Z,16.09344
2018-12-09T01:50:23.053Z,16.09344
2018-12-09T01:50:35.514Z,16.09344
2018-12-09T01:50:49.023Z,16.09344
2018-12-09T01:51:01.531Z,16.09344
2018-12-09T01:51:13.924Z,16.09344
2018-12-09T01:51:26.350Z,16.09344
2018-12-09T01:51:38.979Z,19.312128
2018-12-09T01:51:52.239Z,19.312128
2018-12-09T01:52:04.976Z,9.656064
2018-12-09T01:52:17.360Z,14.484096
2018-12-09T01:52:29.766Z,14.484096
2018-12-09T01:52:42.346Z,14.484096
2018-12-09T01:52:54.863Z,14.484096
2018-12-09T01:53:08.146Z,12.874752
2018-12-09T01:53:20.554Z,17.702784
2018-12-09T01:53:32.976Z,25.749504
2018-12-09T01:53:45.345Z,25.749504
2018-12-09T01:53:57.724Z,25.749504
2018-12-09T01:54:11.283Z,20.921472
2018-12-09T01:54:23.694Z,20.921472
2018-12-09T01:54:36.095Z,20.921472
2018-12-09T01:54:48.658Z,20.921472
2018-12-09T01:55:01.074Z,20.921472
2018-12-09T01:55:14.450Z,6.437376
2018-12-09T01:55:26.874Z,9.656064
2018-12-09T01:55:39.242Z,11.265408
2018-12-09T01:55:51.635Z,12.874752
2018-12-09T01:56:04.025Z,16.09344
2018-12-09T01:56:17.079Z,16.09344
2018-12-09T01:56:30.308Z,17.702784
2018-12-09T01:56:42.714Z,17.702784
2018-12-09T01:56:55.127Z,17.702784
2018-12-09T01:57:07.695Z,11.265408
2018-12-09T01:57:20.087Z,17.702784
2018-12-09T01:57:33.036Z,17.702784
2018-12-09T01:57:45.428Z,17.702784
2018-12-09T01:57:57.828Z,17.702784
2018-12-09T01:58:10.246Z,11.265408
2018-12-09T01:58:22.727Z,14.484096
2018-12-09T01:58:36.129Z,19.312128
2018-12-09T01:58:48.530Z,19.312128
2018-12-09T01:59:00.940Z,19.312128
2018-12-09T01:59:13.336Z,8.04672
2018-12-09T01:59:25.806Z,8.04672
2018-12-09T01:59:38.938Z,8.04672
2018-12-09T01:59:51.550Z,12.874752
2018-12-09T02:00:03.967Z,12.874752
2018-12-09T02:00:16.572Z,20.921472
2018-12-09T02:00:28.980Z,22.530816
2018-12-09T02:00:41.510Z,22.530816
2018-12-09T02:00:54.999Z,22.530816
2018-12-09T02:01:07.389Z,17.702784
2018-12-09T02:01:19.802Z,17.702784
2018-12-09T02:01:32.195Z,17.702784
2018-12-09T02:01:44.598Z,17.702784
2018-12-09T02:01:57.882Z,19.312128
2018-12-09T02:02:10.659Z,16.09344
2018-12-09T02:02:23.080Z,24.14016
2018-12-09T02:02:35.575Z,24.14016
2018-12-09T02:02:47.973Z,24.14016
2018-12-09T02:03:01.040Z,24.14016
2018-12-09T02:03:13.452Z,11.265408
2018-12-09T02:03:25.840Z,19.312128
2018-12-09T02:03:38.216Z,19.312128
2018-12-09T02:03:50.634Z,19.312128
2018-12-09T02:04:03.389Z,14.484096
2018-12-09T02:04:16.700Z,25.749504
2018-12-09T02:04:29.126Z,25.749504
2018-12-09T02:04:41.528Z,25.749504
2018-12-09T02:04:54.091Z,25.749504
2018-12-09T02:05:06.487Z,9.656064
2018-12-09T02:05:19.810Z,16.09344
2018-12-09T02:05:32.207Z,16.09344
2018-12-09T02:05:44.608Z,19.312128
2018-12-09T02:05:57.054Z,19.312128
2018-12-09T02:06:09.458Z,11.265408
2018-12-09T02:06:23.094Z,20.921472
2018-12-09T02:06:35.507Z,20.921472
2018-12-09T02:06:48.106Z,20.921472
2018-12-09T02:07:00.500Z,20.921472
2018-12-09T02:07:12.914Z,12.874752
2018-12-09T02:07:26.284Z,12.874752
2018-12-09T02:07:38.884Z,14.484096
2018-12-09T02:07:51.355Z,20.921472
2018-12-09T02:08:03.758Z,11.265408
2018-12-09T02:08:16.142Z,14.484096
2018-12-09T02:08:28.594Z,14.484096
2018-12-09T02:08:41.913Z,14.484096
2018-12-09T02:08:54.312Z,20.921472
2018-12-09T02:09:06.710Z,14.484096
2018-12-09T02:09:19.260Z,14.484096
2018-12-09T02:09:31.759Z,16.09344
2018-12-09T02:09:45.111Z,16.09344
2018-12-09T02:09:57.509Z,16.09344
2018-12-09T02:10:09.933Z,14.484096
2018-12-09T02:10:22.352Z,14.484096
2018-12-09T02:10:34.750Z,19.312128
2018-12-09T02:10:48.256Z,19.312128
2018-12-09T02:11:00.674Z,19.312128
2018-12-09T02:11:13.069Z,8.04672
2018-12-09T02:11:25.585Z,9.656064
2018-12-09T02:11:38.005Z,9.656064
2018-12-09T02:11:50.841Z,11.265408
2018-12-09T02:12:04.056Z,6.437376
2018-12-09T02:12:16.445Z,14.484096
2018-12-09T02:12:28.959Z,16.09344
2018-12-09T02:12:41.450Z,16.09344
2018-12-09T02:12:53.890Z,16.09344
2018-12-09T02:13:07.246Z,9.656064
2018-12-09T02:13:19.730Z,22.530816
2018-12-09T02:13:32.137Z,22.530816
2018-12-09T02:13:44.590Z,22.530816
2018-12-09T02:13:56.993Z,22.530816
2018-12-09T02:14:10.811Z,9.656064
2018-12-09T02:14:23.214Z,14.484096
2018-12-09T02:14:35.582Z,14.484096
2018-12-09T02:14:47.968Z,14.484096
2018-12-09T02:15:00.573Z,14.484096
2018-12-09T02:15:13.755Z,11.265408
2018-12-09T02:15:26.305Z,11.265408
2018-12-09T02:15:38.702Z,11.265408
2018-12-09T02:15:51.094Z,11.265408
2018-12-09T02:16:03.496Z,9.656064
2018-12-09T02:16:15.922Z,14.484096
2018-12-09T02:16:29.441Z,14.484096
2018-12-09T02:16:41.835Z,19.312128
2018-12-09T02:16:54.337Z,19.312128
2018-12-09T02:17:06.774Z,9.656064
2018-12-09T02:17:19.190Z,9.656064
2018-12-09T02:17:32.472Z,9.656064
2018-12-09T02:17:44.875Z,11.265408
2018-12-09T02:17:57.300Z,16.09344
2018-12-09T02:18:09.707Z,12.874752
2018-12-09T02:18:22.217Z,16.09344
2018-12-09T02:18:35.836Z,16.09344
2018-12-09T02:18:48.430Z,16.09344
2018-12-09T02:19:00.838Z,17.702784
2018-12-09T02:19:13.207Z,20.921472
2018-12-09T02:19:25.639Z,20.921472
2018-12-09T02:19:38.378Z,20.921472
2018-12-09T02:19:51.415Z,20.921472
2018-12-09T02:20:03.967Z,11.265408
2018-12-09T02:20:16.371Z,12.874752
2018-12-09T02:20:28.805Z,12.874752
2018-12-09T02:20:41.213Z,12.874752
2018-12-09T02:20:54.524Z,12.874752
2018-12-09T02:21:06.922Z,8.04672
2018-12-09T02:21:19.340Z,8.04672
2018-12-09T02:21:31.732Z,8.04672
2018-12-09T02:21:44.141Z,8.04672
2018-12-09T02:21:57.768Z,8.04672
2018-12-09T02:22:10.181Z,11.265408
2018-12-09T02:22:22.559Z,20.921472
2018-12-09T02:22:34.969Z,20.921472
2018-12-09T02:22:47.387Z,20.921472
2018-12-09T02:23:00.601Z,20.921472
2018-12-09T02:23:13.299Z,9.656064
2018-12-09T02:23:25.693Z,16.09344
2018-12-09T02:23:38.094Z,16.09344
2018-12-09T02:23:50.492Z,19.312128